createdAt,value
2022-08-09T00:01:54.453Z,98652.40
2022-08-09T00:04:34.624Z,98655.71
2022-08-09T00:07:10.601Z,98646.77
2022-08-09T00:09:39.819Z,98645.05
2022-08-09T00:12:09.527Z,98644.92
2022-08-09T00:14:56.603Z,98649.16
2022-08-09T00:18:05.885Z,98646.51
2022-08-09T00:20:13.635Z,98645.17
2022-08-09T00:22:44.961Z,98645.98
2022-08-09T00:25:23.629Z,98651.52
2022-08-09T00:28:01.190Z,98651.73
2022-08-09T00:30:33.743Z,98654.02
2022-08-09T00:33:01.843Z,98653.58
2022-08-09T00:35:29.777Z,98656.13
2022-08-09T00:38:12.974Z,98654.35
2022-08-09T00:40:52.881Z,98653.50
2022-08-09T00:44:11.191Z,98657.48
2022-08-09T00:46:11.179Z,98659.77
2022-08-09T00:48:56.873Z,98656.21
2022-08-09T00:51:28.252Z,98657.28
2022-08-09T00:54:03.048Z,98661.25
2022-08-09T00:56:31.063Z,98665.42
2022-08-09T00:58:58.987Z,98659.06
2022-08-09T01:01:44.843Z,98661.59
2022-08-09T01:04:23.355Z,98658.36
2022-08-09T01:07:00.982Z,98658.98
2022-08-09T01:09:39.903Z,98661.67
2022-08-09T01:12:46.308Z,98660.98
2022-08-09T01:15:19.269Z,98659.69
2022-08-09T01:18:09.581Z,98659.27
2022-08-09T01:20:49.093Z,98661.23
2022-08-09T01:24:02.357Z,98659.91
2022-08-09T01:26:57.799Z,98660.72
2022-08-09T01:29:40.915Z,98659.84
2022-08-09T01:32:31.999Z,98660.45
2022-08-09T01:35:07.072Z,98660.92
2022-08-09T01:38:09.721Z,98663.20
2022-08-09T01:40:44.392Z,98667.71
2022-08-09T01:43:13.756Z,98665.16
2022-08-09T01:45:47.629Z,98666.14
2022-08-09T01:48:19.175Z,98666.55
2022-08-09T01:50:55.395Z,98667.86
2022-08-09T01:53:29.044Z,98665.58
2022-08-09T01:56:11.254Z,98665.75
2022-08-09T01:58:42.670Z,98669.48
2022-08-09T02:01:18.319Z,98671.88
2022-08-09T02:03:48.540Z,98674.89
2022-08-09T02:06:38.933Z,98676.89
2022-08-09T02:09:15.738Z,98678.56
2022-08-09T02:11:46.140Z,98674.73
2022-08-09T02:14:25.670Z,98677.43
2022-08-09T02:16:59.827Z,98679.59
2022-08-09T02:19:43.971Z,98679.85
2022-08-09T02:22:35.725Z,98684.15
2022-08-09T02:25:15.308Z,98679.83
2022-08-09T02:28:05.224Z,98676.91
2022-08-09T02:30:41.509Z,98678.01
2022-08-09T02:33:17.365Z,98677.77
2022-08-09T02:36:01.305Z,98674.10
2022-08-09T02:38:40.693Z,98677.73
2022-08-09T02:41:21.473Z,98672.86
2022-08-09T02:43:55.543Z,98673.38
2022-08-09T02:46:27.895Z,98674.35
2022-08-09T02:49:06.043Z,98676.53
2022-08-09T02:51:40.472Z,98674.98
2022-08-09T02:54:13.940Z,98672.03
2022-08-09T02:56:51.201Z,98675.25
2022-08-09T02:59:26.178Z,98677.44
2022-08-09T03:02:11.975Z,98673.52
2022-08-09T03:04:46.686Z,98679.36
2022-08-09T03:07:19.508Z,98679.13
2022-08-09T03:09:54.418Z,98676.94
2022-08-09T03:12:27.115Z,98678.54
2022-08-09T03:14:57.054Z,98680.36
2022-08-09T03:17:26.510Z,98687.30
2022-08-09T03:20:05.064Z,98689.96
2022-08-09T03:22:41.988Z,98688.02
2022-08-09T03:25:25.836Z,98686.90
2022-08-09T03:27:57.000Z,98689.13
2022-08-09T03:30:29.580Z,98688.42
2022-08-09T03:33:16.918Z,98690.36
2022-08-09T03:36:14.056Z,98688.34
2022-08-09T03:38:43.279Z,98689.45
2022-08-09T03:41:15.554Z,98687.79
2022-08-09T03:43:51.813Z,98687.34
2022-08-09T03:46:35.691Z,98683.95
2022-08-09T03:49:08.336Z,98682.17
2022-08-09T03:51:58.437Z,98682.59
2022-08-09T03:54:38.589Z,98681.48
2022-08-09T03:57:20.406Z,98686.33
2022-08-09T03:59:54.893Z,98686.08
2022-08-09T04:02:28.161Z,98687.04
2022-08-09T04:04:58.998Z,98684.90
2022-08-09T04:07:47.440Z,98681.40
2022-08-09T04:10:20.663Z,98681.19
2022-08-09T04:12:56.607Z,98686.23
2022-08-09T04:15:38.914Z,98686.83
2022-08-09T04:18:17.813Z,98687.38
2022-08-09T04:20:49.952Z,98690.50
2022-08-09T04:23:24.275Z,98691.30
2022-08-09T04:25:55.373Z,98688.56
2022-08-09T04:28:33.102Z,98690.49
2022-08-09T04:31:09.311Z,98689.48
2022-08-09T04:33:52.204Z,98690.30
2022-08-09T04:36:24.545Z,98689.30
2022-08-09T04:38:54.507Z,98693.98
2022-08-09T04:41:24.443Z,98695.95
2022-08-09T04:44:07.368Z,98694.16
2022-08-09T04:46:59.010Z,98690.00
2022-08-09T04:49:52.805Z,98690.30
2022-08-09T04:52:27.436Z,98688.83
2022-08-09T04:54:57.714Z,98692.39
2022-08-09T04:57:27.139Z,98697.59
2022-08-09T05:00:16.565Z,98700.41
2022-08-09T05:02:52.472Z,98700.41
2022-08-09T05:05:32.518Z,98695.79
2022-08-09T05:08:10.161Z,98693.86
2022-08-09T05:10:42.636Z,98695.96
2022-08-09T05:13:10.877Z,98700.84
2022-08-09T05:15:47.731Z,98705.04
2022-08-09T05:18:39.795Z,98705.33
2022-08-09T05:21:13.325Z,98710.06
2022-08-09T05:23:59.929Z,98710.65
2022-08-09T05:26:41.127Z,98715.13
2022-08-09T05:29:22.076Z,98718.95
2022-08-09T05:31:56.371Z,98717.23
2022-08-09T05:34:30.615Z,98719.37
2022-08-09T05:37:06.233Z,98719.59
2022-08-09T05:39:43.940Z,98718.58
2022-08-09T05:42:20.968Z,98723.08
2022-08-09T05:44:54.695Z,98719.58
2022-08-09T05:47:24.421Z,98722.43
2022-08-09T05:50:25.805Z,98723.45
2022-08-09T05:52:44.334Z,98722.77
2022-08-09T05:55:20.439Z,98724.84
2022-08-09T05:57:56.638Z,98726.05
2022-08-09T06:00:29.147Z,98727.59
2022-08-09T06:02:59.162Z,98723.42
2022-08-09T06:05:31.372Z,98729.59
2022-08-09T06:08:19.789Z,98727.91
2022-08-09T06:10:55.668Z,98728.33
2022-08-09T06:13:24.286Z,98728.17
2022-08-09T06:15:53.077Z,98724.94
2022-08-09T06:18:24.760Z,98724.23
2022-08-09T06:20:57.115Z,98726.61
2022-08-09T06:23:55.467Z,98727.66
2022-08-09T06:26:21.293Z,98732.46
2022-08-09T06:29:00.330Z,98735.25
2022-08-09T06:31:31.015Z,98732.53
2022-08-09T06:33:59.962Z,98732.35
2022-08-09T06:36:29.895Z,98729.42
2022-08-09T06:38:58.624Z,98730.88
2022-08-09T06:41:55.869Z,98732.48
2022-08-09T06:44:19.211Z,98735.81
2022-08-09T06:46:55.450Z,98732.90
2022-08-09T06:49:44.592Z,98731.96
2022-08-09T06:52:12.316Z,98730.61
2022-08-09T06:54:44.298Z,98731.11
2022-08-09T06:57:13.479Z,98737.27
2022-08-09T07:00:52.583Z,98735.19
2022-08-09T07:02:31.724Z,98739.57
2022-08-09T07:05:01.775Z,98743.39
2022-08-09T07:08:00.054Z,98741.61
2022-08-09T07:10:29.522Z,98738.73
2022-08-09T07:13:00.032Z,98746.16
2022-08-09T07:16:36.311Z,98752.39
2022-08-09T07:18:21.274Z,98753.98
2022-08-09T07:20:51.022Z,98755.25
2022-08-09T07:23:20.184Z,98753.87
2022-08-09T07:25:52.285Z,98754.25
2022-08-09T07:28:34.928Z,98753.62
2022-08-09T07:31:05.306Z,98752.55
2022-08-09T07:33:52.163Z,98756.34
2022-08-09T07:36:22.046Z,98759.38
2022-08-09T07:39:00.358Z,98763.00
2022-08-09T07:41:33.192Z,98760.85
2022-08-09T07:44:06.972Z,98761.69
2022-08-09T07:46:34.906Z,98760.27
2022-08-09T07:49:05.707Z,98760.77
2022-08-09T07:52:05.050Z,98764.80
2022-08-09T07:54:30.056Z,98765.22
2022-08-09T07:56:59.097Z,98762.51
2022-08-09T07:59:34.162Z,98760.33
2022-08-09T08:02:19.220Z,98766.70
2022-08-09T08:04:49.000Z,98769.95
2022-08-09T08:09:00.418Z,98766.73
2022-08-09T08:10:08.776Z,98772.83
2022-08-09T08:12:44.011Z,98775.55
2022-08-09T08:15:16.884Z,98772.52
2022-08-09T08:17:52.970Z,98769.27
2022-08-09T08:20:28.597Z,98766.88
2022-08-09T08:23:03.727Z,98767.91
2022-08-09T08:25:54.341Z,98771.29
2022-08-09T08:28:35.119Z,98772.98
2022-08-09T08:31:14.460Z,98772.95
2022-08-09T08:33:52.513Z,98772.19
2022-08-09T08:36:28.739Z,98775.36
2022-08-09T08:39:00.291Z,98773.67
2022-08-09T08:41:54.406Z,98778.72
2022-08-09T08:44:29.671Z,98782.80
2022-08-09T08:47:04.980Z,98783.35
2022-08-09T08:49:47.956Z,98780.71
2022-08-09T08:55:08.088Z,98784.05
2022-08-09T08:57:37.600Z,98786.30
2022-08-09T09:00:17.223Z,98784.63
2022-08-09T09:02:56.031Z,98782.55
2022-08-09T09:05:58.264Z,98782.99
2022-08-09T09:08:30.487Z,98780.73
2022-08-09T09:11:05.706Z,98784.64
2022-08-09T09:13:47.287Z,98783.69
2022-08-09T09:16:30.420Z,98783.48
2022-08-09T09:22:07.424Z,98782.16
2022-08-09T09:24:45.384Z,98778.56
2022-08-09T09:28:03.563Z,98778.61
2022-08-09T09:33:13.764Z,98782.05
2022-08-09T09:36:01.565Z,98784.52
2022-08-09T09:38:57.209Z,98784.06
2022-08-09T09:41:27.887Z,98778.95
2022-08-09T09:44:10.755Z,98777.85
2022-08-09T09:46:50.373Z,98786.73
2022-08-09T09:49:32.116Z,98780.91
2022-08-09T09:52:33.423Z,98780.91
2022-08-09T09:55:16.247Z,98777.62
2022-08-09T09:58:04.373Z,98774.05
2022-08-09T10:00:53.913Z,98779.17
2022-08-09T10:03:42.754Z,98782.77
2022-08-09T10:06:12.926Z,98778.63
2022-08-09T10:08:54.801Z,98774.81
2022-08-09T10:11:53.911Z,98772.84
2022-08-09T10:14:33.372Z,98771.07
2022-08-09T10:17:40.388Z,98765.92
2022-08-09T10:20:32.167Z,98769.30
2022-08-09T10:23:23.716Z,98760.56
2022-08-09T10:26:06.516Z,98761.75
2022-08-09T10:28:43.317Z,98763.69
2022-08-09T10:34:10.129Z,98760.77
2022-08-09T10:36:57.205Z,98761.44
2022-08-09T10:39:26.893Z,98760.21
2022-08-09T10:41:56.369Z,98763.88
2022-08-09T10:44:30.545Z,98766.99
2022-08-09T10:48:16.965Z,98757.61
2022-08-09T10:51:09.060Z,98749.44
2022-08-09T10:54:04.758Z,98760.95
2022-08-09T10:56:35.952Z,98755.64
2022-08-09T10:59:31.050Z,98752.52
2022-08-09T11:03:11.675Z,98753.52
2022-08-09T11:05:25.034Z,98747.41
2022-08-09T11:08:40.834Z,98749.50
2022-08-09T11:11:17.526Z,98752.40
2022-08-09T11:13:49.826Z,98750.75
2022-08-09T11:16:35.615Z,98748.29
2022-08-09T11:19:09.897Z,98742.45
2022-08-09T11:22:16.625Z,98743.98
2022-08-09T11:25:15.951Z,98747.02
2022-08-09T11:28:09.178Z,98745.66
2022-08-09T11:30:47.837Z,98746.46
2022-08-09T11:33:21.909Z,98743.58
2022-08-09T11:36:01.174Z,98742.00
2022-08-09T11:38:32.947Z,98739.08
2022-08-09T11:41:38.262Z,98737.77
2022-08-09T11:44:09.116Z,98737.74
2022-08-09T11:46:59.669Z,98735.81
2022-08-09T11:50:55.720Z,98729.06
2022-08-09T11:53:59.319Z,98721.03
2022-08-09T11:56:19.364Z,98715.05
2022-08-09T11:58:59.183Z,98724.16
2022-08-09T12:02:16.612Z,98734.80
2022-08-09T12:04:32.411Z,98733.05
2022-08-09T12:07:08.269Z,98731.36
2022-08-09T12:09:37.193Z,98733.41
2022-08-09T12:12:13.346Z,98735.36
2022-08-09T12:15:07.156Z,98735.66
2022-08-09T12:17:43.665Z,98735.77
2022-08-09T12:20:21.401Z,98728.58
2022-08-09T12:23:02.539Z,98728.86
2022-08-09T12:25:37.423Z,98727.96
2022-08-09T12:29:14.549Z,98729.73
2022-08-09T12:31:11.115Z,98730.13
2022-08-09T12:34:00.840Z,98725.73
2022-08-09T12:36:33.533Z,98723.22
2022-08-09T12:39:02.223Z,98719.38
2022-08-09T12:41:39.015Z,98717.45
2022-08-09T12:44:10.245Z,98714.90
2022-08-09T12:46:48.891Z,98717.06
2022-08-09T12:49:20.863Z,98717.23
2022-08-09T12:52:01.976Z,98720.64
2022-08-09T12:56:12.333Z,98720.62
2022-08-09T12:57:46.337Z,98721.25
2022-08-09T13:00:25.396Z,98720.44
2022-08-09T13:02:59.629Z,98720.63
2022-08-09T13:05:51.129Z,98718.13
2022-08-09T13:08:35.409Z,98719.95
2022-08-09T13:11:22.778Z,98718.72
2022-08-09T13:14:37.393Z,98720.56
2022-08-09T13:16:46.684Z,98722.02
2022-08-09T13:20:07.485Z,98723.15
2022-08-09T13:22:36.907Z,98718.86
2022-08-09T13:25:16.691Z,98716.50
2022-08-09T13:27:54.844Z,98721.15
2022-08-09T13:31:10.977Z,98714.54
2022-08-09T13:33:24.636Z,98716.29
2022-08-09T13:36:39.758Z,98714.97
2022-08-09T13:41:17.566Z,98713.20
2022-08-09T13:41:57.881Z,98709.57
2022-08-09T13:44:29.248Z,98712.25
2022-08-09T13:47:28.847Z,98709.35
2022-08-09T13:49:58.131Z,98717.98
2022-08-09T13:52:31.154Z,98715.96
2022-08-09T13:55:05.293Z,98717.64
2022-08-09T13:57:39.723Z,98714.14
2022-08-09T14:00:18.844Z,98716.55
2022-08-09T14:03:03.336Z,98713.53
2022-08-09T14:06:00.432Z,98718.20
2022-08-09T14:08:28.392Z,98717.48
2022-08-09T14:10:56.729Z,98721.05
2022-08-09T14:14:16.390Z,98715.27
2022-08-09T14:16:16.233Z,98720.43
2022-08-09T14:18:49.463Z,98724.03
2022-08-09T14:21:24.382Z,98721.52
2022-08-09T14:23:53.663Z,98721.77
2022-08-09T14:26:31.513Z,98723.39
2022-08-09T14:29:25.445Z,98723.09
2022-08-09T14:31:55.457Z,98722.60
2022-08-09T14:34:31.217Z,98722.23
2022-08-09T14:37:06.691Z,98723.65
2022-08-09T14:39:47.032Z,98719.70
2022-08-09T14:42:30.700Z,98716.09
2022-08-09T14:46:57.242Z,98713.80
2022-08-09T14:47:57.246Z,98715.28
2022-08-09T14:50:33.199Z,98718.30
2022-08-09T14:53:11.514Z,98713.76
2022-08-09T14:55:47.790Z,98712.30
2022-08-09T14:58:19.101Z,98707.70
2022-08-09T15:00:48.191Z,98710.38
2022-08-09T15:03:20.673Z,98704.01
2022-08-09T15:05:52.593Z,98701.08
2022-08-09T15:08:24.853Z,98705.17
2022-08-09T15:11:00.979Z,98706.25
2022-08-09T15:13:56.803Z,98703.61
2022-08-09T15:16:21.140Z,98699.63
2022-08-09T15:18:49.683Z,98703.48
2022-08-09T15:21:56.203Z,98706.98
2022-08-09T15:24:12.826Z,98701.31
2022-08-09T15:26:46.027Z,98701.47
2022-08-09T15:30:58.148Z,98701.28
2022-08-09T15:32:03.862Z,98704.87
2022-08-09T15:34:35.361Z,98703.14
2022-08-09T15:37:36.934Z,98704.50
2022-08-09T15:40:11.510Z,98706.30
2022-08-09T15:42:40.662Z,98708.45
2022-08-09T15:45:12.651Z,98710.84
2022-08-09T15:47:52.320Z,98708.65
2022-08-09T15:50:30.174Z,98713.04
2022-08-09T15:53:06.741Z,98710.59
2022-08-09T15:55:58.960Z,98715.56
2022-08-09T15:58:34.701Z,98716.66
2022-08-09T16:01:03.978Z,98714.90
2022-08-09T16:03:38.658Z,98716.42
2022-08-09T16:06:29.422Z,98717.23
2022-08-09T16:09:01.199Z,98714.65
2022-08-09T16:11:33.644Z,98719.08
2022-08-09T16:14:08.021Z,98720.08
2022-08-09T16:16:37.995Z,98718.10
2022-08-09T16:19:08.532Z,98720.82
2022-08-09T16:21:37.824Z,98721.00
2022-08-09T16:24:30.336Z,98724.42
2022-08-09T16:26:56.940Z,98721.86
2022-08-09T16:29:37.013Z,98722.58
2022-08-09T16:32:19.375Z,98726.88
2022-08-09T16:34:57.987Z,98722.08
2022-08-09T16:37:54.839Z,98719.90
2022-08-09T16:40:20.492Z,98724.52
2022-08-09T16:42:59.658Z,98729.50
2022-08-09T16:45:30.878Z,98727.35
2022-08-09T16:48:41.896Z,98728.05
2022-08-09T16:50:58.837Z,98727.30
2022-08-09T16:53:34.004Z,98727.46
2022-08-09T16:56:09.369Z,98728.19
2022-08-09T16:58:42.620Z,98730.55
2022-08-09T17:01:19.341Z,98728.65
2022-08-09T17:03:51.937Z,98725.05
2022-08-09T17:06:31.248Z,98729.77
2022-08-09T17:09:17.739Z,98732.63
2022-08-09T17:11:52.665Z,98732.32
2022-08-09T17:14:27.140Z,98734.96
2022-08-09T17:17:01.167Z,98738.04
2022-08-09T17:19:47.348Z,98735.52
2022-08-09T17:22:24.640Z,98740.58
2022-08-09T17:25:03.294Z,98742.91
2022-08-09T17:27:34.209Z,98741.48
2022-08-09T17:30:14.242Z,98744.23
2022-08-09T17:32:44.258Z,98746.73
2022-08-09T17:35:14.972Z,98746.79
2022-08-09T17:38:11.681Z,98747.40
2022-08-09T17:40:34.941Z,98748.35
2022-08-09T17:43:10.603Z,98748.30
2022-08-09T17:46:01.933Z,98750.45
2022-08-09T17:48:29.459Z,98747.83
2022-08-09T17:51:06.571Z,98753.30
2022-08-09T17:53:51.655Z,98754.09
2022-08-09T17:56:28.755Z,98760.02
2022-08-09T17:59:01.130Z,98761.26
2022-08-09T18:02:03.459Z,98765.16
2022-08-09T18:04:20.399Z,98768.52
2022-08-09T18:06:53.998Z,98765.17
2022-08-09T18:09:35.864Z,98772.81
2022-08-09T18:12:19.467Z,98772.34
2022-08-09T18:14:55.444Z,98777.27
2022-08-09T18:18:02.490Z,98783.42
2022-08-09T18:20:58.321Z,98784.33
2022-08-09T18:23:07.082Z,98786.93
2022-08-09T18:25:52.903Z,98789.59
2022-08-09T18:30:39.000Z,98790.35
2022-08-09T18:31:15.079Z,98793.36
2022-08-09T18:33:55.934Z,98798.40
2022-08-09T18:36:25.998Z,98800.48
2022-08-09T18:39:02.782Z,98803.56
2022-08-09T18:41:34.813Z,98804.70
2022-08-09T18:44:13.105Z,98810.77
2022-08-09T18:46:49.688Z,98814.06
2022-08-09T18:49:32.311Z,98816.29
2022-08-09T18:52:11.578Z,98815.08
2022-08-09T18:54:45.832Z,98814.22
2022-08-09T18:57:22.981Z,98817.56
2022-08-09T18:59:57.453Z,98817.08
2022-08-09T19:02:31.706Z,98816.95
2022-08-09T19:05:19.969Z,98820.81
2022-08-09T19:08:03.625Z,98819.17
2022-08-09T19:10:39.464Z,98820.64
2022-08-09T19:13:20.235Z,98821.83
2022-08-09T19:15:53.037Z,98821.73
2022-08-09T19:18:35.777Z,98820.59
2022-08-09T19:21:09.651Z,98819.56
2022-08-09T19:24:32.392Z,98820.66
2022-08-09T19:26:32.098Z,98821.84
2022-08-09T19:29:15.676Z,98821.77
2022-08-09T19:31:51.064Z,98824.63
2022-08-09T19:34:22.768Z,98826.03
2022-08-09T19:36:54.257Z,98830.23
2022-08-09T19:39:43.569Z,98828.35
2022-08-09T19:42:15.129Z,98823.89
2022-08-09T19:44:51.200Z,98819.08
2022-08-09T19:47:23.630Z,98820.58
2022-08-09T19:50:09.218Z,98817.27
2022-08-09T19:52:49.722Z,98817.79
2022-08-09T19:55:30.868Z,98820.32
2022-08-09T19:58:16.627Z,98818.82
2022-08-09T20:00:47.382Z,98820.65
2022-08-09T20:04:11.400Z,98819.23
2022-08-09T20:06:10.602Z,98820.05
2022-08-09T20:09:43.616Z,98820.14
2022-08-09T20:12:09.455Z,98827.94
2022-08-09T20:14:56.009Z,98825.27
2022-08-09T20:17:24.547Z,98826.98
2022-08-09T20:20:54.162Z,98825.43
2022-08-09T20:23:38.864Z,98829.80
2022-08-09T20:26:10.220Z,98828.95
2022-08-09T20:28:47.876Z,98833.11
2022-08-09T20:31:16.446Z,98832.21
2022-08-09T20:34:10.841Z,98831.40
2022-08-09T20:36:39.000Z,98834.61
2022-08-09T20:39:29.051Z,98833.95
2022-08-09T20:41:56.344Z,98833.91
2022-08-09T20:44:26.848Z,98834.29
2022-08-09T20:46:57.928Z,98831.63
2022-08-09T20:49:28.606Z,98832.86
2022-08-09T20:51:56.731Z,98831.95
2022-08-09T20:54:25.814Z,98830.85
2022-08-09T20:56:57.257Z,98827.88
2022-08-09T20:59:50.264Z,98827.75
2022-08-09T21:02:26.853Z,98831.85
2022-08-09T21:05:54.695Z,98830.73
2022-08-09T21:07:44.436Z,98827.95
2022-08-09T21:10:12.660Z,98828.23
2022-08-09T21:15:34.243Z,98827.79
2022-08-09T21:18:29.568Z,98824.96
2022-08-09T21:20:54.413Z,98828.77
2022-08-09T21:23:26.599Z,98831.60
2022-08-09T21:26:12.964Z,98840.15
2022-08-09T21:28:55.576Z,98843.83
2022-08-09T21:31:48.592Z,98841.34
2022-08-09T21:34:14.768Z,98843.55
2022-08-09T21:36:56.828Z,98844.67
2022-08-09T21:39:27.928Z,98846.02
2022-08-09T21:42:11.523Z,98846.09
2022-08-09T21:44:42.700Z,98845.56
2022-08-09T21:47:14.189Z,98842.66
2022-08-09T21:49:48.274Z,98844.09
2022-08-09T21:52:20.606Z,98844.45
2022-08-09T21:55:03.503Z,98840.67
2022-08-09T21:57:38.413Z,98842.67
2022-08-09T22:00:32.212Z,98835.98
2022-08-09T22:03:06.138Z,98836.11
2022-08-09T22:05:41.802Z,98831.02
2022-08-09T22:08:14.826Z,98831.34
2022-08-09T22:11:00.526Z,98831.20
2022-08-09T22:13:37.168Z,98825.30
2022-08-09T22:16:07.676Z,98826.08
2022-08-09T22:18:44.159Z,98818.69
2022-08-09T22:21:50.430Z,98818.44
2022-08-09T22:24:21.173Z,98817.35
2022-08-09T22:26:53.774Z,98816.15
2022-08-09T22:29:28.415Z,98818.17
2022-08-09T22:32:00.796Z,98821.73
2022-08-09T22:34:28.793Z,98820.27
2022-08-09T22:36:57.870Z,98821.12
2022-08-09T22:39:55.481Z,98819.14
2022-08-09T22:42:21.928Z,98821.50
2022-08-09T22:45:00.469Z,98819.09
2022-08-09T22:48:18.730Z,98821.36
2022-08-09T22:50:31.831Z,98820.70
2022-08-09T22:53:03.833Z,98820.27
2022-08-09T22:56:05.983Z,98816.36
2022-08-09T22:58:32.340Z,98817.23
2022-08-09T23:01:06.089Z,98817.05
2022-08-09T23:04:03.721Z,98820.15
2022-08-09T23:06:34.673Z,98818.27
2022-08-09T23:09:07.313Z,98820.42
2022-08-09T23:11:35.569Z,98820.42
2022-08-09T23:14:09.613Z,98820.05
2022-08-09T23:16:38.547Z,98819.92
2022-08-09T23:19:06.434Z,98820.92
2022-08-09T23:21:34.741Z,98822.66
2022-08-09T23:24:07.112Z,98823.73
2022-08-09T23:26:39.539Z,98817.80
2022-08-09T23:29:11.474Z,98816.71
2022-08-09T23:31:42.546Z,98813.98
2022-08-09T23:34:10.983Z,98816.15
2022-08-09T23:36:38.918Z,98813.26
2022-08-09T23:39:08.303Z,98811.84
2022-08-09T23:41:36.583Z,98811.08
2022-08-09T23:44:04.881Z,98808.94
2022-08-09T23:46:33.383Z,98807.29
2022-08-09T23:49:02.000Z,98807.74
2022-08-09T23:51:29.963Z,98815.02
2022-08-09T23:54:02.717Z,98811.64
2022-08-09T23:56:52.833Z,98816.71
2022-08-09T23:59:21.537Z,98817.14
